createdAt,value
2017-07-15T00:00:35.932Z,14.47
2017-07-15T00:01:36.866Z,14.45
2017-07-15T00:02:37.547Z,14.44
2017-07-15T00:03:38.234Z,14.60
2017-07-15T00:04:38.925Z,14.54
2017-07-15T00:05:39.614Z,14.73
2017-07-15T00:06:40.551Z,14.68
2017-07-15T00:07:41.248Z,14.66
2017-07-15T00:08:41.930Z,14.69
2017-07-15T00:09:42.615Z,14.72
2017-07-15T00:10:43.305Z,14.65
2017-07-15T00:11:44.242Z,14.66
2017-07-15T00:12:44.930Z,14.68
2017-07-15T00:13:45.631Z,14.70
2017-07-15T00:14:46.321Z,14.68
2017-07-15T00:15:47.005Z,14.60
2017-07-15T00:16:47.949Z,14.68
2017-07-15T00:17:48.633Z,14.69
2017-07-15T00:18:49.315Z,14.66
2017-07-15T00:19:50.000Z,14.66
2017-07-15T00:20:50.686Z,14.70
2017-07-15T00:21:51.375Z,14.66
2017-07-15T00:22:52.057Z,14.68
2017-07-15T00:23:52.739Z,14.69
2017-07-15T00:24:53.421Z,14.72
2017-07-15T00:25:54.107Z,14.70
2017-07-15T00:26:55.043Z,14.68
2017-07-15T00:27:55.729Z,14.60
2017-07-15T00:28:56.423Z,14.53
2017-07-15T00:29:57.109Z,14.59
2017-07-15T00:30:57.797Z,14.59
2017-07-15T00:31:58.483Z,14.53
2017-07-15T00:32:59.169Z,14.54
2017-07-15T00:33:59.857Z,14.40
2017-07-15T00:35:00.550Z,14.44
2017-07-15T00:36:01.232Z,14.48
2017-07-15T00:37:02.166Z,14.51
2017-07-15T00:38:02.848Z,14.54
2017-07-15T00:39:03.530Z,14.50
2017-07-15T00:40:04.220Z,14.60
2017-07-15T00:41:04.906Z,14.54
2017-07-15T00:42:05.843Z,14.68
2017-07-15T00:43:06.529Z,14.66
2017-07-15T00:44:07.219Z,14.63
2017-07-15T00:45:07.907Z,14.66
2017-07-15T00:46:08.587Z,14.73
2017-07-15T00:47:09.523Z,14.72
2017-07-15T00:48:10.207Z,14.66
2017-07-15T00:49:10.891Z,14.68
2017-07-15T00:50:11.579Z,14.65
2017-07-15T00:51:12.265Z,14.77
2017-07-15T00:52:13.204Z,14.69
2017-07-15T00:53:13.891Z,14.63
2017-07-15T00:54:14.580Z,14.66
2017-07-15T00:55:15.273Z,14.51
2017-07-15T00:56:15.952Z,14.47
2017-07-15T00:57:16.896Z,14.47
2017-07-15T00:58:17.581Z,14.37
2017-07-15T00:59:18.269Z,14.44
2017-07-15T01:00:18.955Z,14.45
2017-07-15T01:01:19.639Z,14.45
2017-07-15T01:02:20.581Z,14.48
2017-07-15T01:03:21.270Z,14.45
2017-07-15T01:04:21.954Z,14.45
2017-07-15T01:05:22.642Z,14.48
2017-07-15T01:06:23.332Z,14.51
2017-07-15T01:07:24.273Z,14.44
2017-07-15T01:08:24.952Z,14.44
2017-07-15T01:09:25.636Z,14.36
2017-07-15T01:10:26.323Z,14.45
2017-07-15T01:11:27.008Z,14.36
2017-07-15T01:12:27.946Z,14.30
2017-07-15T01:13:28.631Z,14.25
2017-07-15T01:14:29.322Z,14.30
2017-07-15T01:15:30.003Z,14.33
2017-07-15T01:16:30.687Z,14.26
2017-07-15T01:17:31.624Z,14.28
2017-07-15T01:18:32.311Z,14.30
2017-07-15T01:19:32.996Z,14.22
2017-07-15T01:20:33.679Z,14.20
2017-07-15T01:21:34.360Z,14.29
2017-07-15T01:22:35.297Z,14.32
2017-07-15T01:23:35.986Z,14.32
2017-07-15T01:24:36.672Z,14.30
2017-07-15T01:25:37.355Z,14.23
2017-07-15T01:26:38.037Z,14.25
2017-07-15T01:27:38.973Z,14.36
2017-07-15T01:28:39.671Z,14.44
2017-07-15T01:29:40.360Z,14.36
2017-07-15T01:30:41.049Z,14.30
2017-07-15T01:31:41.735Z,14.33
2017-07-15T01:32:42.671Z,14.33
2017-07-15T01:33:43.352Z,14.25
2017-07-15T01:34:44.042Z,14.08
2017-07-15T01:35:44.728Z,14.14
2017-07-15T01:36:45.420Z,14.10
2017-07-15T01:37:46.361Z,14.12
2017-07-15T01:38:47.049Z,14.18
2017-07-15T01:39:47.744Z,14.07
2017-07-15T01:40:48.427Z,14.22
2017-07-15T01:41:49.118Z,14.08
2017-07-15T01:42:50.056Z,14.18
2017-07-15T01:43:50.741Z,14.20
2017-07-15T01:44:51.429Z,14.20
2017-07-15T01:45:52.115Z,14.23
2017-07-15T01:46:52.799Z,14.37
2017-07-15T01:47:53.736Z,14.41
2017-07-15T01:48:54.423Z,14.35
2017-07-15T01:49:55.117Z,14.45
2017-07-15T01:50:55.806Z,14.44
2017-07-15T01:51:56.493Z,14.43
2017-07-15T01:52:57.433Z,14.41
2017-07-15T01:53:58.123Z,14.50
2017-07-15T01:54:58.812Z,14.45
2017-07-15T01:55:59.503Z,14.51
2017-07-15T01:57:00.189Z,14.37
2017-07-15T01:58:00.881Z,14.26
2017-07-15T01:59:01.563Z,14.23
2017-07-15T02:00:02.249Z,14.25
2017-07-15T02:01:02.951Z,14.15
2017-07-15T02:02:03.637Z,14.25
2017-07-15T02:03:04.325Z,14.22
2017-07-15T02:04:05.010Z,14.11
2017-07-15T02:05:05.694Z,14.11
2017-07-15T02:06:06.385Z,14.08
2017-07-15T02:07:07.074Z,14.11
2017-07-15T02:08:08.016Z,14.04
2017-07-15T02:09:08.701Z,14.08
2017-07-15T02:10:09.389Z,14.14
2017-07-15T02:11:10.082Z,14.03
2017-07-15T02:12:10.765Z,13.97
2017-07-15T02:13:11.703Z,14.00
2017-07-15T02:14:12.389Z,14.05
2017-07-15T02:15:13.086Z,13.97
2017-07-15T02:16:13.768Z,14.00
2017-07-15T02:17:14.454Z,14.00
2017-07-15T02:18:15.392Z,14.00
2017-07-15T02:19:16.074Z,14.00
2017-07-15T02:20:16.760Z,14.05
2017-07-15T02:21:17.450Z,14.03
2017-07-15T02:22:18.135Z,14.00
2017-07-15T02:23:19.072Z,14.00
2017-07-15T02:24:19.758Z,14.03
2017-07-15T02:25:20.447Z,13.89
2017-07-15T02:26:21.137Z,13.92
2017-07-15T02:27:21.824Z,13.86
2017-07-15T02:28:22.763Z,13.86
2017-07-15T02:29:23.454Z,13.93
2017-07-15T02:30:24.150Z,13.86
2017-07-15T02:31:24.840Z,13.90
2017-07-15T02:32:25.524Z,13.90
2017-07-15T02:33:26.463Z,13.93
2017-07-15T02:34:27.147Z,13.86
2017-07-15T02:35:27.831Z,13.93
2017-07-15T02:36:28.517Z,13.77
2017-07-15T02:37:29.199Z,13.83
2017-07-15T02:38:30.128Z,13.87
2017-07-15T02:39:30.816Z,14.00
2017-07-15T02:40:31.505Z,14.05
2017-07-15T02:41:32.190Z,14.04
2017-07-15T02:42:32.875Z,13.96
2017-07-15T02:43:33.814Z,13.96
2017-07-15T02:44:34.503Z,13.90
2017-07-15T02:45:35.195Z,13.92
2017-07-15T02:46:35.883Z,13.95
2017-07-15T02:47:36.569Z,13.92
2017-07-15T02:48:37.505Z,13.86
2017-07-15T02:49:38.193Z,13.89
2017-07-15T02:50:38.882Z,13.75
2017-07-15T02:51:39.568Z,13.87
2017-07-15T02:52:40.252Z,13.89
2017-07-15T02:53:41.184Z,13.85
2017-07-15T02:54:41.879Z,13.90
2017-07-15T02:55:42.575Z,13.83
2017-07-15T02:56:43.260Z,13.87
2017-07-15T02:57:43.948Z,13.77
2017-07-15T02:58:44.885Z,13.87
2017-07-15T02:59:45.573Z,13.89
2017-07-15T03:00:46.258Z,13.86
2017-07-15T03:01:46.945Z,13.85
2017-07-15T03:02:47.629Z,13.79
2017-07-15T03:03:48.572Z,13.74
2017-07-15T03:04:49.259Z,13.77
2017-07-15T03:05:49.946Z,13.78
2017-07-15T03:06:50.641Z,13.87
2017-07-15T03:07:51.327Z,13.72
2017-07-15T03:08:52.320Z,13.75
2017-07-15T03:09:53.007Z,13.89
2017-07-15T03:10:53.693Z,13.85
2017-07-15T03:11:54.383Z,13.72
2017-07-15T03:12:55.069Z,13.81
2017-07-15T03:13:56.003Z,13.67
2017-07-15T03:14:56.690Z,13.68
2017-07-15T03:15:57.377Z,13.70
2017-07-15T03:16:58.067Z,13.60
2017-07-15T03:17:58.756Z,13.56
2017-07-15T03:18:59.690Z,13.57
2017-07-15T03:20:00.379Z,13.52
2017-07-15T03:21:01.067Z,13.52
2017-07-15T03:22:01.753Z,13.44
2017-07-15T03:23:02.436Z,13.39
2017-07-15T03:24:03.374Z,13.42
2017-07-15T03:25:04.061Z,13.37
2017-07-15T03:26:04.744Z,13.30
2017-07-15T03:27:05.432Z,13.28
2017-07-15T03:28:06.119Z,13.31
2017-07-15T03:29:07.057Z,13.28
2017-07-15T03:30:07.742Z,13.30
2017-07-15T03:31:08.432Z,13.31
2017-07-15T03:32:09.120Z,13.37
2017-07-15T03:33:09.809Z,13.33
2017-07-15T03:34:10.498Z,13.31
2017-07-15T03:35:11.186Z,13.30
2017-07-15T03:36:11.877Z,13.20
2017-07-15T03:37:12.565Z,13.30
2017-07-15T03:38:13.254Z,13.28
2017-07-15T03:39:13.941Z,13.12
2017-07-15T03:40:14.632Z,13.23
2017-07-15T03:41:15.323Z,13.16
2017-07-15T03:42:16.008Z,13.09
2017-07-15T03:43:16.696Z,13.27
2017-07-15T03:44:17.642Z,13.16
2017-07-15T03:45:18.331Z,13.16
2017-07-15T03:46:19.021Z,13.09
2017-07-15T03:47:19.710Z,13.25
2017-07-15T03:48:20.409Z,13.18
2017-07-15T03:49:21.352Z,13.12
2017-07-15T03:50:22.037Z,13.12
2017-07-15T03:51:22.722Z,13.12
2017-07-15T03:52:23.414Z,13.13
2017-07-15T03:53:24.104Z,13.13
2017-07-15T03:54:25.046Z,13.16
2017-07-15T03:55:25.741Z,13.00
2017-07-15T03:56:26.431Z,12.98
2017-07-15T03:57:27.121Z,13.18
2017-07-15T03:58:27.814Z,13.20
2017-07-15T03:59:28.757Z,13.19
2017-07-15T04:00:29.448Z,13.22
2017-07-15T04:01:30.138Z,13.23
2017-07-15T04:02:30.824Z,13.23
2017-07-15T04:03:31.511Z,13.33
2017-07-15T04:04:32.455Z,13.19
2017-07-15T04:05:33.146Z,13.20
2017-07-15T04:06:33.840Z,13.22
2017-07-15T04:07:34.525Z,13.23
2017-07-15T04:08:35.216Z,13.16
2017-07-15T04:09:36.158Z,13.15
2017-07-15T04:10:36.844Z,13.25
2017-07-15T04:11:37.541Z,13.39
2017-07-15T04:12:38.228Z,13.41
2017-07-15T04:13:38.916Z,13.39
2017-07-15T04:14:39.852Z,13.28
2017-07-15T04:15:40.545Z,13.22
2017-07-15T04:16:41.231Z,13.25
2017-07-15T04:17:41.927Z,13.28
2017-07-15T04:18:42.611Z,13.35
2017-07-15T04:19:43.551Z,13.54
2017-07-15T04:20:44.240Z,13.37
2017-07-15T04:21:44.928Z,13.49
2017-07-15T04:22:45.616Z,13.35
2017-07-15T04:23:46.306Z,13.37
2017-07-15T04:24:47.244Z,13.38
2017-07-15T04:25:47.950Z,13.38
2017-07-15T04:26:48.865Z,13.39
2017-07-15T04:27:49.553Z,13.39
2017-07-15T04:28:50.244Z,13.42
2017-07-15T04:29:51.184Z,13.50
2017-07-15T04:30:51.873Z,13.33
2017-07-15T04:31:52.562Z,13.46
2017-07-15T04:32:53.246Z,13.38
2017-07-15T04:33:53.933Z,13.42
2017-07-15T04:34:54.872Z,13.49
2017-07-15T04:35:55.564Z,13.47
2017-07-15T04:36:56.256Z,13.35
2017-07-15T04:37:56.946Z,13.44
2017-07-15T04:38:57.635Z,13.41
2017-07-15T04:39:58.576Z,13.49
2017-07-15T04:40:59.262Z,13.44
2017-07-15T04:41:59.957Z,13.49
2017-07-15T04:43:00.657Z,13.47
2017-07-15T04:44:01.349Z,13.54
2017-07-15T04:45:02.293Z,13.49
2017-07-15T04:46:02.984Z,13.44
2017-07-15T04:47:03.673Z,13.49
2017-07-15T04:48:04.369Z,13.39
2017-07-15T04:49:05.065Z,13.53
2017-07-15T04:50:06.014Z,13.60
2017-07-15T04:51:06.702Z,13.60
2017-07-15T04:52:07.393Z,13.52
2017-07-15T04:53:08.087Z,13.53
2017-07-15T04:54:08.781Z,13.53
2017-07-15T04:55:09.723Z,13.57
2017-07-15T04:56:10.414Z,13.74
2017-07-15T04:57:11.107Z,13.68
2017-07-15T04:58:11.794Z,13.72
2017-07-15T04:59:12.489Z,13.74
2017-07-15T05:00:13.428Z,13.68
2017-07-15T05:01:14.127Z,13.67
2017-07-15T05:02:14.821Z,13.60
2017-07-15T05:03:15.514Z,13.63
2017-07-15T05:04:16.208Z,13.67
2017-07-15T05:05:17.149Z,13.65
2017-07-15T05:06:17.840Z,13.70
2017-07-15T05:07:18.530Z,13.72
2017-07-15T05:08:19.218Z,13.72
2017-07-15T05:09:19.909Z,13.75
2017-07-15T05:10:20.851Z,13.79
2017-07-15T05:11:21.540Z,13.68
2017-07-15T05:12:22.232Z,13.78
2017-07-15T05:13:22.918Z,13.71
2017-07-15T05:14:23.609Z,13.72
2017-07-15T05:15:24.549Z,13.75
2017-07-15T05:16:25.239Z,13.70
2017-07-15T05:17:25.936Z,13.78
2017-07-15T05:18:26.622Z,13.77
2017-07-15T05:19:27.310Z,13.71
2017-07-15T05:20:28.248Z,13.74
2017-07-15T05:21:28.949Z,13.71
2017-07-15T05:22:29.630Z,13.89
2017-07-15T05:23:30.324Z,13.85
2017-07-15T05:24:31.020Z,13.85
2017-07-15T05:25:31.961Z,13.86
2017-07-15T05:26:32.649Z,13.87
2017-07-15T05:27:33.338Z,13.89
2017-07-15T05:28:34.031Z,13.86
2017-07-15T05:29:34.724Z,13.78
2017-07-15T05:30:35.664Z,13.92
2017-07-15T05:31:36.354Z,13.99
2017-07-15T05:32:37.043Z,13.99
2017-07-15T05:33:37.732Z,14.03
2017-07-15T05:34:38.424Z,14.04
2017-07-15T05:35:39.364Z,13.93
2017-07-15T05:36:40.051Z,13.99
2017-07-15T05:37:40.738Z,13.96
2017-07-15T05:38:41.425Z,13.96
2017-07-15T05:39:42.114Z,13.99
2017-07-15T05:40:43.057Z,13.97
2017-07-15T05:41:43.745Z,13.97
2017-07-15T05:42:44.431Z,13.96
2017-07-15T05:43:45.125Z,13.96
2017-07-15T05:44:45.814Z,14.05
2017-07-15T05:45:46.774Z,14.03
2017-07-15T05:46:47.440Z,14.05
2017-07-15T05:47:48.127Z,14.04
2017-07-15T05:48:48.816Z,13.97
2017-07-15T05:49:49.506Z,14.05
2017-07-15T05:50:50.449Z,14.03
2017-07-15T05:51:51.140Z,14.12
2017-07-15T05:52:51.838Z,14.08
2017-07-15T05:53:52.528Z,14.05
2017-07-15T05:54:53.219Z,14.05
2017-07-15T05:55:54.163Z,14.08
2017-07-15T05:56:54.867Z,14.07
2017-07-15T05:57:55.576Z,14.10
2017-07-15T05:58:56.268Z,14.10
2017-07-15T05:59:56.965Z,14.07
2017-07-15T06:00:57.908Z,14.08
2017-07-15T06:01:58.599Z,14.15
2017-07-15T06:02:59.288Z,14.11
2017-07-15T06:03:59.974Z,14.08
2017-07-15T06:05:00.675Z,14.15
2017-07-15T06:06:01.618Z,14.20
2017-07-15T06:07:02.308Z,14.17
2017-07-15T06:08:02.996Z,14.20
2017-07-15T06:09:03.687Z,14.25
2017-07-15T06:10:04.379Z,14.28
2017-07-15T06:11:05.322Z,14.30
2017-07-15T06:12:06.012Z,14.26
2017-07-15T06:13:06.705Z,14.26
2017-07-15T06:14:07.399Z,14.29
2017-07-15T06:15:08.090Z,14.28
2017-07-15T06:16:09.033Z,14.45
2017-07-15T06:17:09.721Z,14.37
2017-07-15T06:18:10.409Z,14.36
2017-07-15T06:19:11.101Z,14.43
2017-07-15T06:20:11.792Z,14.40
2017-07-15T06:21:12.735Z,14.43
2017-07-15T06:22:13.431Z,14.48
2017-07-15T06:23:14.124Z,14.47
2017-07-15T06:24:14.826Z,14.37
2017-07-15T06:25:15.520Z,14.48
2017-07-15T06:26:16.465Z,14.47
2017-07-15T06:27:17.161Z,14.53
2017-07-15T06:28:17.852Z,14.59
2017-07-15T06:29:18.549Z,14.51
2017-07-15T06:30:19.234Z,14.60
2017-07-15T06:31:19.924Z,14.58
2017-07-15T06:32:20.614Z,14.53
2017-07-15T06:33:21.310Z,14.54
2017-07-15T06:34:21.998Z,14.55
2017-07-15T06:35:22.687Z,14.51
2017-07-15T06:36:23.378Z,14.55
2017-07-15T06:37:24.069Z,14.60
2017-07-15T06:38:24.768Z,14.69
2017-07-15T06:39:25.459Z,14.65
2017-07-15T06:40:26.150Z,14.68
2017-07-15T06:41:27.099Z,14.68
2017-07-15T06:42:27.790Z,14.68
2017-07-15T06:43:28.481Z,14.66
2017-07-15T06:44:29.173Z,14.60
2017-07-15T06:45:29.865Z,14.78
2017-07-15T06:46:30.816Z,14.84
2017-07-15T06:47:31.508Z,14.85
2017-07-15T06:48:32.201Z,14.79
2017-07-15T06:49:32.894Z,14.92
2017-07-15T06:50:33.593Z,14.86
2017-07-15T06:51:34.531Z,14.89
2017-07-15T06:52:35.223Z,15.00
2017-07-15T06:53:35.917Z,15.03
2017-07-15T06:54:36.603Z,15.07
2017-07-15T06:55:37.293Z,15.09
2017-07-15T06:56:38.236Z,15.02
2017-07-15T06:57:38.929Z,15.02
2017-07-15T06:58:39.625Z,15.02
2017-07-15T06:59:40.315Z,15.06
2017-07-15T07:00:41.006Z,15.07
2017-07-15T07:01:41.949Z,15.15
2017-07-15T07:02:42.647Z,15.25
2017-07-15T07:03:43.338Z,15.24
2017-07-15T07:04:44.030Z,15.28
2017-07-15T07:05:44.721Z,15.36
2017-07-15T07:06:45.664Z,15.29
2017-07-15T07:07:46.355Z,15.43
2017-07-15T07:08:47.052Z,15.44
2017-07-15T07:09:47.748Z,15.52
2017-07-15T07:10:48.442Z,15.54
2017-07-15T07:11:49.384Z,15.54
2017-07-15T07:12:50.076Z,15.51
2017-07-15T07:13:50.769Z,15.31
2017-07-15T07:14:51.458Z,15.29
2017-07-15T07:15:52.151Z,15.29
2017-07-15T07:16:53.092Z,15.31
2017-07-15T07:17:53.787Z,15.36
2017-07-15T07:18:54.486Z,15.31
2017-07-15T07:19:55.177Z,15.40
2017-07-15T07:20:55.882Z,15.39
2017-07-15T07:21:56.823Z,15.39
2017-07-15T07:22:57.517Z,15.33
2017-07-15T07:23:58.207Z,15.36
2017-07-15T07:24:58.899Z,15.27
2017-07-15T07:25:59.591Z,15.31
2017-07-15T07:27:00.531Z,15.31
2017-07-15T07:28:01.227Z,15.25
2017-07-15T07:29:01.916Z,15.28
2017-07-15T07:30:02.629Z,15.40
2017-07-15T07:31:03.321Z,15.31
2017-07-15T07:32:04.295Z,15.29
2017-07-15T07:33:04.964Z,15.36
2017-07-15T07:34:05.661Z,15.42
2017-07-15T07:35:06.344Z,15.43
2017-07-15T07:36:07.036Z,15.43
2017-07-15T07:37:07.982Z,15.40
2017-07-15T07:38:08.674Z,15.44
2017-07-15T07:39:09.366Z,15.49
2017-07-15T07:40:10.057Z,15.29
2017-07-15T07:41:10.751Z,15.35
2017-07-15T07:42:11.691Z,15.39
2017-07-15T07:43:12.392Z,15.46
2017-07-15T07:44:13.081Z,15.51
2017-07-15T07:45:13.774Z,15.57
2017-07-15T07:46:14.466Z,15.49
2017-07-15T07:47:15.410Z,15.52
2017-07-15T07:48:16.102Z,15.59
2017-07-15T07:49:16.793Z,15.68
2017-07-15T07:50:17.484Z,15.72
2017-07-15T07:51:18.178Z,15.61
2017-07-15T07:52:19.121Z,15.67
2017-07-15T07:53:19.816Z,15.68
2017-07-15T07:54:20.514Z,15.68
2017-07-15T07:55:21.214Z,15.76
2017-07-15T07:56:21.906Z,15.73
2017-07-15T07:57:22.850Z,15.92
2017-07-15T07:58:23.555Z,15.80
2017-07-15T07:59:24.252Z,15.73
2017-07-15T08:00:24.949Z,15.75
2017-07-15T08:01:25.638Z,15.80
2017-07-15T08:02:26.580Z,15.92
2017-07-15T08:03:27.281Z,15.95
2017-07-15T08:04:27.972Z,15.95
2017-07-15T08:05:28.669Z,16.04
2017-07-15T08:06:29.366Z,16.05
2017-07-15T08:07:30.057Z,16.15
2017-07-15T08:08:30.752Z,16.23
2017-07-15T08:09:31.449Z,16.24
2017-07-15T08:10:32.153Z,16.20
2017-07-15T08:11:32.844Z,16.21
2017-07-15T08:12:33.790Z,16.29
2017-07-15T08:13:34.483Z,16.23
2017-07-15T08:14:35.170Z,16.24
2017-07-15T08:15:35.869Z,16.24
2017-07-15T08:16:36.572Z,16.17
2017-07-15T08:17:37.523Z,16.32
2017-07-15T08:18:38.208Z,16.17
2017-07-15T08:19:38.911Z,16.36
2017-07-15T08:20:39.604Z,16.33
2017-07-15T08:21:40.294Z,16.35
2017-07-15T08:22:41.235Z,16.29
2017-07-15T08:23:41.929Z,16.24
2017-07-15T08:24:42.621Z,16.23
2017-07-15T08:25:43.312Z,16.16
2017-07-15T08:26:44.004Z,16.20
2017-07-15T08:27:44.947Z,16.17
2017-07-15T08:28:45.648Z,16.26
2017-07-15T08:29:46.344Z,16.10
2017-07-15T08:30:47.037Z,16.02
2017-07-15T08:31:47.728Z,16.17
2017-07-15T08:32:48.670Z,16.23
2017-07-15T08:33:49.366Z,16.32
2017-07-15T08:34:50.067Z,16.43
2017-07-15T08:35:50.767Z,16.51
2017-07-15T08:36:51.459Z,16.43
2017-07-15T08:37:52.398Z,16.33
2017-07-15T08:38:53.093Z,16.36
2017-07-15T08:39:53.786Z,16.36
2017-07-15T08:40:54.478Z,16.42
2017-07-15T08:41:55.165Z,16.56
2017-07-15T08:42:56.112Z,16.69
2017-07-15T08:43:56.807Z,16.78
2017-07-15T08:44:57.501Z,16.81
2017-07-15T08:45:58.204Z,17.01
2017-07-15T08:46:58.905Z,16.97
2017-07-15T08:47:59.849Z,17.01
2017-07-15T08:49:00.539Z,17.09
2017-07-15T08:50:01.236Z,17.04
2017-07-15T08:51:01.933Z,17.14
2017-07-15T08:52:02.626Z,17.29
2017-07-15T08:53:03.576Z,17.23
2017-07-15T08:54:04.271Z,17.34
2017-07-15T08:55:04.971Z,17.44
2017-07-15T08:56:05.669Z,17.42
2017-07-15T08:57:06.365Z,17.59
2017-07-15T08:58:07.315Z,17.63
2017-07-15T08:59:08.008Z,17.46
2017-07-15T09:00:08.699Z,17.33
2017-07-15T09:01:09.399Z,17.48
2017-07-15T09:02:10.088Z,17.39
2017-07-15T09:03:11.028Z,17.48
2017-07-15T09:04:11.728Z,17.71
2017-07-15T09:05:12.419Z,17.65
2017-07-15T09:06:13.116Z,17.56
2017-07-15T09:07:13.816Z,17.71
2017-07-15T09:08:14.750Z,17.63
2017-07-15T09:09:15.447Z,17.68
2017-07-15T09:10:16.158Z,17.79
2017-07-15T09:11:16.858Z,17.64
2017-07-15T09:12:17.555Z,17.74
2017-07-15T09:13:18.498Z,17.86
2017-07-15T09:14:19.189Z,17.89
2017-07-15T09:15:19.888Z,17.79
2017-07-15T09:16:20.585Z,17.79
2017-07-15T09:17:21.283Z,17.72
2017-07-15T09:18:22.223Z,17.80
2017-07-15T09:19:22.916Z,17.74
2017-07-15T09:20:23.613Z,17.87
2017-07-15T09:21:24.318Z,17.83
2017-07-15T09:22:25.011Z,17.86
2017-07-15T09:23:25.956Z,17.90
2017-07-15T09:24:26.652Z,17.82
2017-07-15T09:25:27.349Z,17.89
2017-07-15T09:26:28.051Z,17.95
2017-07-15T09:27:28.745Z,17.86
2017-07-15T09:28:29.681Z,17.97
2017-07-15T09:29:30.377Z,17.92
2017-07-15T09:30:31.067Z,17.90
2017-07-15T09:31:31.759Z,17.89
2017-07-15T09:32:32.466Z,17.97
2017-07-15T09:33:33.412Z,18.10
2017-07-15T09:34:34.103Z,17.92
2017-07-15T09:35:34.795Z,18.01
2017-07-15T09:36:35.491Z,18.11
2017-07-15T09:37:36.180Z,18.33
2017-07-15T09:38:36.871Z,18.41
2017-07-15T09:39:37.578Z,18.41
2017-07-15T09:40:38.272Z,18.34
2017-07-15T09:41:38.970Z,18.37
2017-07-15T09:42:39.663Z,18.40
2017-07-15T09:43:40.610Z,18.34
2017-07-15T09:44:41.302Z,18.25
2017-07-15T09:45:41.994Z,18.15
2017-07-15T09:46:42.686Z,18.13
2017-07-15T09:47:43.387Z,18.10
2017-07-15T09:48:44.331Z,18.10
2017-07-15T09:49:45.024Z,17.92
2017-07-15T09:50:45.723Z,17.78
2017-07-15T09:51:46.418Z,17.83
2017-07-15T09:52:47.124Z,17.89
2017-07-15T09:53:48.075Z,17.80
2017-07-15T09:54:48.768Z,17.85
2017-07-15T09:55:49.467Z,17.87
2017-07-15T09:56:50.159Z,17.92
2017-07-15T09:57:50.851Z,17.63
2017-07-15T09:58:51.548Z,17.65
2017-07-15T09:59:52.243Z,17.85
2017-07-15T10:00:52.936Z,18.00
2017-07-15T10:01:53.655Z,18.16
2017-07-15T10:02:54.346Z,18.19
2017-07-15T10:03:55.302Z,18.10
2017-07-15T10:04:56.005Z,18.19
2017-07-15T10:05:56.705Z,18.35
2017-07-15T10:06:57.410Z,18.41
2017-07-15T10:07:58.106Z,18.53
2017-07-15T10:08:59.055Z,18.59
2017-07-15T10:09:59.745Z,18.63
2017-07-15T10:11:00.437Z,18.73
2017-07-15T10:12:01.135Z,18.75
2017-07-15T10:13:01.829Z,18.90
2017-07-15T10:14:03.086Z,18.96
2017-07-15T10:15:03.779Z,18.96
2017-07-15T10:16:04.471Z,18.92
2017-07-15T10:17:05.166Z,19.27
2017-07-15T10:18:05.856Z,19.48
2017-07-15T10:19:06.807Z,19.59
2017-07-15T10:20:07.501Z,19.37
2017-07-15T10:21:08.203Z,18.93
2017-07-15T10:22:08.901Z,18.89
2017-07-15T10:23:09.595Z,19.11
2017-07-15T10:24:10.539Z,19.44
2017-07-15T10:25:11.236Z,19.66
2017-07-15T10:26:11.930Z,19.71
2017-07-15T10:27:12.626Z,19.89
2017-07-15T10:28:13.322Z,20.04
2017-07-15T10:29:14.268Z,19.55
2017-07-15T10:30:14.968Z,19.91
2017-07-15T10:31:15.665Z,19.85
2017-07-15T10:32:16.362Z,19.94
2017-07-15T10:33:17.056Z,20.00
2017-07-15T10:34:17.998Z,19.95
2017-07-15T10:35:18.699Z,19.67
2017-07-15T10:36:19.391Z,19.55
2017-07-15T10:37:20.091Z,19.66
2017-07-15T10:38:20.791Z,19.56
2017-07-15T10:39:21.744Z,19.55
2017-07-15T10:40:22.434Z,19.54
2017-07-15T10:41:23.129Z,19.51
2017-07-15T10:42:23.838Z,19.55
2017-07-15T10:43:24.533Z,19.52
2017-07-15T10:44:25.484Z,19.67
2017-07-15T10:45:26.185Z,19.82
2017-07-15T10:46:26.889Z,19.76
2017-07-15T10:47:27.590Z,19.81
2017-07-15T10:48:28.289Z,19.74
2017-07-15T10:49:29.246Z,19.81
2017-07-15T10:50:29.942Z,19.81
2017-07-15T10:51:30.634Z,19.76
2017-07-15T10:52:31.336Z,19.79
2017-07-15T10:53:32.033Z,19.85
2017-07-15T10:54:32.983Z,20.09
2017-07-15T10:55:33.679Z,20.02
2017-07-15T10:56:34.378Z,20.13
2017-07-15T10:57:35.075Z,20.03
2017-07-15T10:58:35.768Z,20.14
2017-07-15T10:59:36.714Z,20.06
2017-07-15T11:00:37.413Z,20.21
2017-07-15T11:01:38.112Z,20.39
2017-07-15T11:02:38.804Z,20.43
2017-07-15T11:03:39.508Z,20.41
2017-07-15T11:04:40.454Z,20.52
2017-07-15T11:05:41.160Z,20.40
2017-07-15T11:06:41.865Z,20.21
2017-07-15T11:07:42.565Z,20.34
2017-07-15T11:08:43.260Z,20.65
2017-07-15T11:09:43.952Z,20.59
2017-07-15T11:10:44.645Z,20.48
2017-07-15T11:11:45.340Z,20.41
2017-07-15T11:12:46.036Z,20.44
2017-07-15T11:13:46.741Z,20.55
2017-07-15T11:14:47.705Z,20.51
2017-07-15T11:15:48.408Z,20.36
2017-07-15T11:16:49.101Z,20.66
2017-07-15T11:17:49.800Z,20.74
2017-07-15T11:18:50.489Z,20.99
2017-07-15T11:19:51.429Z,21.02
2017-07-15T11:20:52.123Z,21.09
2017-07-15T11:21:52.821Z,20.88
2017-07-15T11:22:53.523Z,20.78
2017-07-15T11:23:54.218Z,20.93
2017-07-15T11:24:55.166Z,20.69
2017-07-15T11:25:55.862Z,20.55
2017-07-15T11:26:56.557Z,20.72
2017-07-15T11:27:57.256Z,20.75
2017-07-15T11:28:57.953Z,20.87
2017-07-15T11:29:58.909Z,20.87
2017-07-15T11:30:59.614Z,20.92
2017-07-15T11:32:00.310Z,20.90
2017-07-15T11:33:01.005Z,20.84
2017-07-15T11:34:01.704Z,20.78
2017-07-15T11:35:02.654Z,20.74
2017-07-15T11:36:03.363Z,20.66
2017-07-15T11:37:04.061Z,20.59
2017-07-15T11:38:04.767Z,20.63
2017-07-15T11:39:05.460Z,20.67
2017-07-15T11:40:06.408Z,20.65
2017-07-15T11:41:07.103Z,20.72
2017-07-15T11:42:07.792Z,20.75
2017-07-15T11:43:08.484Z,20.75
2017-07-15T11:44:09.182Z,20.60
2017-07-15T11:45:10.128Z,20.66
2017-07-15T11:46:10.831Z,20.66
2017-07-15T11:47:11.535Z,20.74
2017-07-15T11:48:12.247Z,20.75
2017-07-15T11:49:12.950Z,21.03
2017-07-15T11:50:13.888Z,21.24
2017-07-15T11:51:14.585Z,21.39
2017-07-15T11:52:15.282Z,21.57
2017-07-15T11:53:15.988Z,21.70
2017-07-15T11:54:16.685Z,21.79
2017-07-15T11:55:17.641Z,21.76
2017-07-15T11:56:18.331Z,21.85
2017-07-15T11:57:19.031Z,22.00
2017-07-15T11:58:19.737Z,21.91
2017-07-15T11:59:20.422Z,21.77
2017-07-15T12:00:21.374Z,21.48
2017-07-15T12:01:22.067Z,21.69
2017-07-15T12:02:22.770Z,21.73
2017-07-15T12:03:23.469Z,21.62
2017-07-15T12:04:24.162Z,21.83
2017-07-15T12:05:25.105Z,21.76
2017-07-15T12:06:25.807Z,21.67
2017-07-15T12:07:26.506Z,21.48
2017-07-15T12:08:27.200Z,21.37
2017-07-15T12:09:27.890Z,21.70
2017-07-15T12:10:28.842Z,21.39
2017-07-15T12:11:29.535Z,21.37
2017-07-15T12:12:30.229Z,22.06
2017-07-15T12:13:30.928Z,22.35
2017-07-15T12:14:31.629Z,22.26
2017-07-15T12:15:32.576Z,22.68
2017-07-15T12:16:33.279Z,22.81
2017-07-15T12:17:33.973Z,22.94
2017-07-15T12:18:34.668Z,22.43
2017-07-15T12:19:35.363Z,22.14
2017-07-15T12:20:36.312Z,22.13
2017-07-15T12:21:37.002Z,22.55
2017-07-15T12:22:37.705Z,22.35
2017-07-15T12:23:38.406Z,22.43
2017-07-15T12:24:39.107Z,22.55
2017-07-15T12:25:40.053Z,22.65
2017-07-15T12:26:40.750Z,22.41
2017-07-15T12:27:41.447Z,22.28
2017-07-15T12:28:42.146Z,22.26
2017-07-15T12:29:42.834Z,22.38
2017-07-15T12:30:43.783Z,22.22
2017-07-15T12:31:44.489Z,21.92
2017-07-15T12:32:45.185Z,21.87
2017-07-15T12:33:45.886Z,21.37
2017-07-15T12:34:46.593Z,21.35
2017-07-15T12:35:47.288Z,21.29
2017-07-15T12:36:47.995Z,20.95
2017-07-15T12:37:48.691Z,21.03
2017-07-15T12:38:49.392Z,20.59
2017-07-15T12:39:50.087Z,20.55
2017-07-15T12:40:51.040Z,20.74
2017-07-15T12:41:51.739Z,20.80
2017-07-15T12:42:52.433Z,20.88
2017-07-15T12:43:53.139Z,20.97
2017-07-15T12:44:53.833Z,20.99
2017-07-15T12:45:54.779Z,21.03
2017-07-15T12:46:55.477Z,20.96
2017-07-15T12:47:56.183Z,21.07
2017-07-15T12:48:56.879Z,21.03
2017-07-15T12:49:57.573Z,21.00
2017-07-15T12:50:58.516Z,20.99
2017-07-15T12:51:59.211Z,20.97
2017-07-15T12:52:59.906Z,20.75
2017-07-15T12:54:00.612Z,20.58
2017-07-15T12:55:01.310Z,20.84
2017-07-15T12:56:02.249Z,20.84
2017-07-15T12:57:02.940Z,20.97
2017-07-15T12:58:03.637Z,20.97
2017-07-15T12:59:04.341Z,21.00
2017-07-15T13:00:05.036Z,21.30
2017-07-15T13:01:05.981Z,21.39
2017-07-15T13:02:06.691Z,21.32